Terminal Aerodrome Forecast
Issued by NWS

Home | Current Version | Previous Version | Text Only | Print | Product List | Glossary On
Versions: 1 2 3 4 5 6 7 8 9 10 11 12 13 14 15
000
FTUS45 KABQ 110500
TAFGUP
TAF
KGUP 110533Z 1106/1206 09005KT P6SM VCTS BKN060CB
     FM110800 33005KT P6SM BKN060
     FM111800 27010G20KT P6SM VCSH BKN060
     FM112000 27015G25KT P6SM VCTS BKN060CB
     FM112300 24010G20KT P6SM VCSH BKN060
     FM120200 27010G20KT P6SM OVC060=

USA.gov is the U.S. government's official web portal to all federal, state and local government web resources and services.